<?xml version="1.0" encoding="UTF-8"?>
<gpx version="1.1" creator="https://www.www-youtrack-es.amenigma.com" xsi:schemaLocation="http://www.topografix.com/GPX/1/1 http://www.topografix.com/GPX/1/1/gpx.xsd http://www.garmin.com/xmlschemas/GpxExtensions/v3 http://www.garmin.com/xmlschemas/GpxExtensionsv3.xsd http://www.garmin.com/xmlschemas/TrackPointExtension/v1 http://www.garmin.com/xmlschemas/TrackPointExtensionv1.xsd" xmlns:gpxtpx="http://www.garmin.com/xmlschemas/TrackPointExtension/v1" xmlns:gpxx="http://www.garmin.com/xmlschemas/GpxExtensions/v3" xmlns:xsi="http://www.w3.org/2001/XMLSchema-instance">
  <metadata>
    <link href="https://www.www-youtrack-es.amenigma.com">
      <text>YouTrack.es</text>
    </link>
    <time>2026-09-01T23:00:45Z</time>
  </metadata>
  <trk>
    <src>https://www.www-youtrack-es.amenigma.com</src>
    <link href="https://www.www-youtrack-es.amenigma.com/ruta/16886-vallfogona-de-riucorb-1">
      <text>YouTrack.es</text>
    </link>
    <trkseg>
      <trkpt lat="41.564460" lon="1.238392">
        <ele>582.042</ele>
        <time>2020-10-09T10:20:13Z</time>
      </trkpt>
      <trkpt lat="41.564695" lon="1.237468">
        <ele>583.022</ele>
        <time>2020-10-09T10:23:32Z</time>
      </trkpt>
      <trkpt lat="41.564711" lon="1.237715">
        <ele>584.814</ele>
        <time>2020-10-09T10:24:30Z</time>
      </trkpt>
      <trkpt lat="41.564947" lon="1.235480">
        <ele>571.408</ele>
        <time>2020-10-09T10:29:28Z</time>
      </trkpt>
      <trkpt lat="41.563828" lon="1.235864">
        <ele>563.599</ele>
        <time>2020-10-09T10:31:53Z</time>
      </trkpt>
      <trkpt lat="41.563355" lon="1.235129">
        <ele>566.532</ele>
        <time>2020-10-09T10:34:49Z</time>
      </trkpt>
      <trkpt lat="41.563298" lon="1.235437">
        <ele>570.416</ele>
        <time>2020-10-09T10:37:22Z</time>
      </trkpt>
      <trkpt lat="41.563216" lon="1.235134">
        <ele>572.774</ele>
        <time>2020-10-09T10:37:57Z</time>
      </trkpt>
      <trkpt lat="41.562841" lon="1.235223">
        <ele>577.858</ele>
        <time>2020-10-09T10:38:32Z</time>
      </trkpt>
      <trkpt lat="41.562766" lon="1.232823">
        <ele>568.016</ele>
        <time>2020-10-09T10:42:25Z</time>
      </trkpt>
      <trkpt lat="41.562534" lon="1.232458">
        <ele>569.224</ele>
        <time>2020-10-09T10:44:00Z</time>
      </trkpt>
      <trkpt lat="41.561768" lon="1.232474">
        <ele>577.113</ele>
        <time>2020-10-09T10:46:05Z</time>
      </trkpt>
      <trkpt lat="41.562028" lon="1.232076">
        <ele>580.236</ele>
        <time>2020-10-09T10:50:52Z</time>
      </trkpt>
      <trkpt lat="41.561533" lon="1.231658">
        <ele>591.417</ele>
        <time>2020-10-09T10:53:06Z</time>
      </trkpt>
      <trkpt lat="41.561227" lon="1.231159">
        <ele>602.118</ele>
        <time>2020-10-09T10:54:33Z</time>
      </trkpt>
      <trkpt lat="41.561130" lon="1.230647">
        <ele>607.908</ele>
        <time>2020-10-09T10:55:17Z</time>
      </trkpt>
      <trkpt lat="41.560784" lon="1.230353">
        <ele>618.488</ele>
        <time>2020-10-09T10:56:04Z</time>
      </trkpt>
      <trkpt lat="41.560500" lon="1.229542">
        <ele>621.441</ele>
        <time>2020-10-09T10:59:31Z</time>
      </trkpt>
      <trkpt lat="41.559998" lon="1.229237">
        <ele>624.635</ele>
        <time>2020-10-09T11:01:36Z</time>
      </trkpt>
      <trkpt lat="41.559788" lon="1.228247">
        <ele>625.873</ele>
        <time>2020-10-09T11:02:32Z</time>
      </trkpt>
      <trkpt lat="41.559151" lon="1.227525">
        <ele>625.127</ele>
        <time>2020-10-09T11:03:35Z</time>
      </trkpt>
      <trkpt lat="41.559025" lon="1.225971">
        <ele>616.735</ele>
        <time>2020-10-09T11:06:29Z</time>
      </trkpt>
      <trkpt lat="41.558819" lon="1.225167">
        <ele>615.043</ele>
        <time>2020-10-09T11:07:45Z</time>
      </trkpt>
      <trkpt lat="41.558879" lon="1.224319">
        <ele>609.132</ele>
        <time>2020-10-09T11:09:23Z</time>
      </trkpt>
      <trkpt lat="41.558625" lon="1.223514">
        <ele>610.973</ele>
        <time>2020-10-09T11:10:12Z</time>
      </trkpt>
      <trkpt lat="41.558722" lon="1.221165">
        <ele>607.685</ele>
        <time>2020-10-09T11:12:13Z</time>
      </trkpt>
      <trkpt lat="41.558178" lon="1.220374">
        <ele>603.813</ele>
        <time>2020-10-09T11:13:42Z</time>
      </trkpt>
      <trkpt lat="41.557686" lon="1.220409">
        <ele>603.208</ele>
        <time>2020-10-09T11:14:11Z</time>
      </trkpt>
      <trkpt lat="41.556663" lon="1.221280">
        <ele>606.242</ele>
        <time>2020-10-09T11:15:37Z</time>
      </trkpt>
      <trkpt lat="41.556332" lon="1.221233">
        <ele>607.445</ele>
        <time>2020-10-09T11:16:23Z</time>
      </trkpt>
      <trkpt lat="41.555644" lon="1.221734">
        <ele>602.439</ele>
        <time>2020-10-09T11:17:42Z</time>
      </trkpt>
      <trkpt lat="41.554884" lon="1.221872">
        <ele>595.327</ele>
        <time>2020-10-09T11:18:38Z</time>
      </trkpt>
      <trkpt lat="41.554204" lon="1.222261">
        <ele>588.171</ele>
        <time>2020-10-09T11:19:32Z</time>
      </trkpt>
      <trkpt lat="41.553854" lon="1.222639">
        <ele>587.559</ele>
        <time>2020-10-09T11:20:20Z</time>
      </trkpt>
      <trkpt lat="41.553379" lon="1.223348">
        <ele>592.017</ele>
        <time>2020-10-09T11:23:24Z</time>
      </trkpt>
      <trkpt lat="41.553617" lon="1.223308">
        <ele>595.266</ele>
        <time>2020-10-09T11:23:45Z</time>
      </trkpt>
      <trkpt lat="41.553625" lon="1.223486">
        <ele>599.424</ele>
        <time>2020-10-09T11:24:11Z</time>
      </trkpt>
      <trkpt lat="41.553199" lon="1.224054">
        <ele>601.204</ele>
        <time>2020-10-09T11:25:15Z</time>
      </trkpt>
      <trkpt lat="41.553489" lon="1.224905">
        <ele>603.914</ele>
        <time>2020-10-09T11:26:21Z</time>
      </trkpt>
      <trkpt lat="41.553382" lon="1.225024">
        <ele>604.908</ele>
        <time>2020-10-09T11:26:32Z</time>
      </trkpt>
      <trkpt lat="41.552759" lon="1.225040">
        <ele>603.597</ele>
        <time>2020-10-09T11:27:18Z</time>
      </trkpt>
      <trkpt lat="41.552335" lon="1.226742">
        <ele>611.450</ele>
        <time>2020-10-09T11:34:23Z</time>
      </trkpt>
      <trkpt lat="41.552488" lon="1.227444">
        <ele>615.864</ele>
        <time>2020-10-09T11:35:14Z</time>
      </trkpt>
      <trkpt lat="41.552669" lon="1.227473">
        <ele>618.952</ele>
        <time>2020-10-09T11:35:31Z</time>
      </trkpt>
      <trkpt lat="41.553030" lon="1.227978">
        <ele>614.246</ele>
        <time>2020-10-09T11:36:13Z</time>
      </trkpt>
      <trkpt lat="41.553542" lon="1.228218">
        <ele>619.784</ele>
        <time>2020-10-09T11:36:55Z</time>
      </trkpt>
      <trkpt lat="41.554913" lon="1.229576">
        <ele>640.712</ele>
        <time>2020-10-09T11:39:36Z</time>
      </trkpt>
      <trkpt lat="41.555160" lon="1.230265">
        <ele>644.571</ele>
        <time>2020-10-09T11:40:21Z</time>
      </trkpt>
      <trkpt lat="41.555719" lon="1.230840">
        <ele>652.918</ele>
        <time>2020-10-09T11:41:23Z</time>
      </trkpt>
      <trkpt lat="41.556036" lon="1.231712">
        <ele>659.598</ele>
        <time>2020-10-09T11:43:01Z</time>
      </trkpt>
      <trkpt lat="41.556101" lon="1.232419">
        <ele>665.917</ele>
        <time>2020-10-09T11:43:41Z</time>
      </trkpt>
      <trkpt lat="41.556362" lon="1.231813">
        <ele>671.008</ele>
        <time>2020-10-09T11:44:34Z</time>
      </trkpt>
      <trkpt lat="41.556423" lon="1.232199">
        <ele>672.046</ele>
        <time>2020-10-09T11:45:00Z</time>
      </trkpt>
      <trkpt lat="41.556207" lon="1.233463">
        <ele>683.419</ele>
        <time>2020-10-09T11:51:03Z</time>
      </trkpt>
      <trkpt lat="41.556497" lon="1.233247">
        <ele>685.723</ele>
        <time>2020-10-09T11:51:32Z</time>
      </trkpt>
      <trkpt lat="41.556842" lon="1.233322">
        <ele>685.651</ele>
        <time>2020-10-09T11:54:48Z</time>
      </trkpt>
      <trkpt lat="41.556975" lon="1.233603">
        <ele>682.635</ele>
        <time>2020-10-09T11:55:05Z</time>
      </trkpt>
      <trkpt lat="41.556929" lon="1.234201">
        <ele>682.673</ele>
        <time>2020-10-09T11:55:43Z</time>
      </trkpt>
      <trkpt lat="41.557133" lon="1.235318">
        <ele>682.641</ele>
        <time>2020-10-09T11:56:36Z</time>
      </trkpt>
      <trkpt lat="41.557530" lon="1.235723">
        <ele>682.680</ele>
        <time>2020-10-09T11:57:08Z</time>
      </trkpt>
      <trkpt lat="41.557609" lon="1.236586">
        <ele>682.615</ele>
        <time>2020-10-09T11:58:57Z</time>
      </trkpt>
      <trkpt lat="41.557986" lon="1.236463">
        <ele>682.665</ele>
        <time>2020-10-09T11:59:34Z</time>
      </trkpt>
      <trkpt lat="41.558505" lon="1.236593">
        <ele>652.411</ele>
        <time>2020-10-09T12:00:10Z</time>
      </trkpt>
      <trkpt lat="41.558442" lon="1.236965">
        <ele>652.708</ele>
        <time>2020-10-09T12:02:38Z</time>
      </trkpt>
      <trkpt lat="41.558214" lon="1.237083">
        <ele>652.726</ele>
        <time>2020-10-09T12:02:54Z</time>
      </trkpt>
      <trkpt lat="41.558363" lon="1.237126">
        <ele>652.719</ele>
        <time>2020-10-09T12:03:31Z</time>
      </trkpt>
      <trkpt lat="41.558267" lon="1.237425">
        <ele>652.783</ele>
        <time>2020-10-09T12:03:54Z</time>
      </trkpt>
      <trkpt lat="41.558836" lon="1.237785">
        <ele>670.231</ele>
        <time>2020-10-09T12:06:57Z</time>
      </trkpt>
      <trkpt lat="41.558664" lon="1.237682">
        <ele>670.835</ele>
        <time>2020-10-09T12:07:42Z</time>
      </trkpt>
      <trkpt lat="41.558370" lon="1.237756">
        <ele>673.873</ele>
        <time>2020-10-09T12:08:01Z</time>
      </trkpt>
      <trkpt lat="41.557507" lon="1.238647">
        <ele>681.431</ele>
        <time>2020-10-09T12:10:31Z</time>
      </trkpt>
      <trkpt lat="41.557018" lon="1.239376">
        <ele>685.880</ele>
        <time>2020-10-09T12:11:24Z</time>
      </trkpt>
      <trkpt lat="41.556316" lon="1.241448">
        <ele>695.238</ele>
        <time>2020-10-09T12:13:54Z</time>
      </trkpt>
      <trkpt lat="41.556156" lon="1.242404">
        <ele>694.270</ele>
        <time>2020-10-09T12:16:13Z</time>
      </trkpt>
      <trkpt lat="41.555743" lon="1.243299">
        <ele>694.217</ele>
        <time>2020-10-09T12:17:08Z</time>
      </trkpt>
      <trkpt lat="41.555703" lon="1.243624">
        <ele>694.208</ele>
        <time>2020-10-09T12:17:27Z</time>
      </trkpt>
      <trkpt lat="41.556007" lon="1.244812">
        <ele>694.268</ele>
        <time>2020-10-09T12:19:07Z</time>
      </trkpt>
      <trkpt lat="41.555903" lon="1.246206">
        <ele>694.221</ele>
        <time>2020-10-09T12:20:16Z</time>
      </trkpt>
      <trkpt lat="41.556323" lon="1.246929">
        <ele>694.235</ele>
        <time>2020-10-09T12:21:05Z</time>
      </trkpt>
      <trkpt lat="41.556330" lon="1.247495">
        <ele>694.263</ele>
        <time>2020-10-09T12:21:37Z</time>
      </trkpt>
      <trkpt lat="41.555312" lon="1.249019">
        <ele>737.427</ele>
        <time>2020-10-09T12:24:16Z</time>
      </trkpt>
      <trkpt lat="41.555116" lon="1.250964">
        <ele>739.595</ele>
        <time>2020-10-09T12:27:52Z</time>
      </trkpt>
      <trkpt lat="41.555332" lon="1.250982">
        <ele>733.613</ele>
        <time>2020-10-09T12:29:04Z</time>
      </trkpt>
      <trkpt lat="41.555796" lon="1.250627">
        <ele>729.462</ele>
        <time>2020-10-09T12:29:38Z</time>
      </trkpt>
      <trkpt lat="41.556297" lon="1.250921">
        <ele>729.498</ele>
        <time>2020-10-09T12:30:16Z</time>
      </trkpt>
      <trkpt lat="41.557235" lon="1.249987">
        <ele>706.415</ele>
        <time>2020-10-09T12:32:47Z</time>
      </trkpt>
      <trkpt lat="41.557465" lon="1.250045">
        <ele>700.026</ele>
        <time>2020-10-09T12:33:08Z</time>
      </trkpt>
      <trkpt lat="41.557860" lon="1.249674">
        <ele>700.008</ele>
        <time>2020-10-09T12:33:49Z</time>
      </trkpt>
      <trkpt lat="41.558078" lon="1.249219">
        <ele>685.474</ele>
        <time>2020-10-09T12:35:09Z</time>
      </trkpt>
      <trkpt lat="41.557983" lon="1.248376">
        <ele>686.627</ele>
        <time>2020-10-09T12:35:55Z</time>
      </trkpt>
      <trkpt lat="41.558315" lon="1.247401">
        <ele>686.261</ele>
        <time>2020-10-09T12:36:57Z</time>
      </trkpt>
      <trkpt lat="41.558964" lon="1.246338">
        <ele>679.589</ele>
        <time>2020-10-09T12:38:36Z</time>
      </trkpt>
      <trkpt lat="41.559456" lon="1.246020">
        <ele>679.373</ele>
        <time>2020-10-09T12:39:11Z</time>
      </trkpt>
      <trkpt lat="41.560273" lon="1.245002">
        <ele>670.731</ele>
        <time>2020-10-09T12:42:01Z</time>
      </trkpt>
      <trkpt lat="41.560588" lon="1.243738">
        <ele>662.619</ele>
        <time>2020-10-09T12:43:27Z</time>
      </trkpt>
      <trkpt lat="41.560812" lon="1.241826">
        <ele>653.238</ele>
        <time>2020-10-09T12:46:46Z</time>
      </trkpt>
      <trkpt lat="41.560968" lon="1.241577">
        <ele>653.242</ele>
        <time>2020-10-09T12:47:05Z</time>
      </trkpt>
      <trkpt lat="41.561084" lon="1.241759">
        <ele>653.222</ele>
        <time>2020-10-09T12:47:35Z</time>
      </trkpt>
      <trkpt lat="41.561726" lon="1.239181">
        <ele>653.214</ele>
        <time>2020-10-09T12:50:00Z</time>
      </trkpt>
      <trkpt lat="41.560060" lon="1.245417">
        <ele>671.816</ele>
        <time>2020-10-13T11:13:59Z</time>
      </trkpt>
      <trkpt lat="41.560103" lon="1.245379">
        <ele>671.876</ele>
        <time>2020-10-13T11:14:55Z</time>
      </trkpt>
      <trkpt lat="41.560149" lon="1.245334">
        <ele>671.813</ele>
        <time>2020-10-13T11:14:58Z</time>
      </trkpt>
      <trkpt lat="41.560195" lon="1.245288">
        <ele>671.808</ele>
        <time>2020-10-13T11:15:01Z</time>
      </trkpt>
      <trkpt lat="41.560238" lon="1.245245">
        <ele>673.856</ele>
        <time>2020-10-13T11:15:04Z</time>
      </trkpt>
      <trkpt lat="41.560283" lon="1.245202">
        <ele>675.829</ele>
        <time>2020-10-13T11:15:07Z</time>
      </trkpt>
      <trkpt lat="41.560322" lon="1.245167">
        <ele>676.826</ele>
        <time>2020-10-13T11:15:09Z</time>
      </trkpt>
      <trkpt lat="41.560362" lon="1.245135">
        <ele>674.842</ele>
        <time>2020-10-13T11:15:12Z</time>
      </trkpt>
      <trkpt lat="41.560385" lon="1.245082">
        <ele>673.834</ele>
        <time>2020-10-13T11:15:16Z</time>
      </trkpt>
      <trkpt lat="41.560393" lon="1.245015">
        <ele>668.882</ele>
        <time>2020-10-13T11:15:22Z</time>
      </trkpt>
      <trkpt lat="41.560389" lon="1.244953">
        <ele>670.882</ele>
        <time>2020-10-13T11:15:28Z</time>
      </trkpt>
      <trkpt lat="41.560382" lon="1.244885">
        <ele>668.850</ele>
        <time>2020-10-13T11:15:32Z</time>
      </trkpt>
      <trkpt lat="41.560393" lon="1.244824">
        <ele>665.882</ele>
        <time>2020-10-13T11:15:35Z</time>
      </trkpt>
      <trkpt lat="41.560405" lon="1.244759">
        <ele>667.843</ele>
        <time>2020-10-13T11:15:38Z</time>
      </trkpt>
      <trkpt lat="41.560415" lon="1.244686">
        <ele>667.817</ele>
        <time>2020-10-13T11:15:41Z</time>
      </trkpt>
      <trkpt lat="41.560436" lon="1.244611">
        <ele>671.208</ele>
        <time>2020-10-13T11:15:44Z</time>
      </trkpt>
      <trkpt lat="41.560449" lon="1.244532">
        <ele>670.793</ele>
        <time>2020-10-13T11:15:47Z</time>
      </trkpt>
      <trkpt lat="41.560465" lon="1.244447">
        <ele>670.056</ele>
        <time>2020-10-13T11:15:50Z</time>
      </trkpt>
      <trkpt lat="41.560470" lon="1.244384">
        <ele>669.553</ele>
        <time>2020-10-13T11:15:53Z</time>
      </trkpt>
      <trkpt lat="41.560486" lon="1.244312">
        <ele>668.689</ele>
        <time>2020-10-13T11:15:57Z</time>
      </trkpt>
      <trkpt lat="41.560495" lon="1.244242">
        <ele>668.311</ele>
        <time>2020-10-13T11:16:00Z</time>
      </trkpt>
      <trkpt lat="41.560515" lon="1.244181">
        <ele>667.499</ele>
        <time>2020-10-13T11:16:04Z</time>
      </trkpt>
      <trkpt lat="41.560534" lon="1.244120">
        <ele>667.019</ele>
        <time>2020-10-13T11:16:07Z</time>
      </trkpt>
      <trkpt lat="41.560561" lon="1.244052">
        <ele>666.617</ele>
        <time>2020-10-13T11:16:10Z</time>
      </trkpt>
      <trkpt lat="41.560586" lon="1.244002">
        <ele>666.522</ele>
        <time>2020-10-13T11:16:13Z</time>
      </trkpt>
      <trkpt lat="41.560609" lon="1.243933">
        <ele>666.362</ele>
        <time>2020-10-13T11:16:15Z</time>
      </trkpt>
      <trkpt lat="41.560628" lon="1.243852">
        <ele>665.908</ele>
        <time>2020-10-13T11:16:18Z</time>
      </trkpt>
      <trkpt lat="41.560630" lon="1.243785">
        <ele>666.008</ele>
        <time>2020-10-13T11:16:21Z</time>
      </trkpt>
      <trkpt lat="41.560626" lon="1.243711">
        <ele>665.737</ele>
        <time>2020-10-13T11:16:24Z</time>
      </trkpt>
      <trkpt lat="41.560618" lon="1.243646">
        <ele>665.330</ele>
        <time>2020-10-13T11:16:27Z</time>
      </trkpt>
      <trkpt lat="41.560596" lon="1.243580">
        <ele>665.187</ele>
        <time>2020-10-13T11:17:34Z</time>
      </trkpt>
      <trkpt lat="41.560609" lon="1.243522">
        <ele>664.363</ele>
        <time>2020-10-13T11:17:37Z</time>
      </trkpt>
      <trkpt lat="41.560618" lon="1.243445">
        <ele>662.545</ele>
        <time>2020-10-13T11:17:45Z</time>
      </trkpt>
      <trkpt lat="41.560605" lon="1.243385">
        <ele>661.313</ele>
        <time>2020-10-13T11:17:48Z</time>
      </trkpt>
      <trkpt lat="41.560614" lon="1.243317">
        <ele>660.383</ele>
        <time>2020-10-13T11:17:51Z</time>
      </trkpt>
      <trkpt lat="41.560602" lon="1.243253">
        <ele>659.711</ele>
        <time>2020-10-13T11:17:54Z</time>
      </trkpt>
      <trkpt lat="41.560589" lon="1.243186">
        <ele>658.427</ele>
        <time>2020-10-13T11:18:08Z</time>
      </trkpt>
      <trkpt lat="41.560594" lon="1.243101">
        <ele>657.768</ele>
        <time>2020-10-13T11:18:11Z</time>
      </trkpt>
      <trkpt lat="41.560589" lon="1.243022">
        <ele>657.114</ele>
        <time>2020-10-13T11:18:14Z</time>
      </trkpt>
      <trkpt lat="41.560600" lon="1.242963">
        <ele>656.608</ele>
        <time>2020-10-13T11:18:17Z</time>
      </trkpt>
      <trkpt lat="41.560603" lon="1.242900">
        <ele>655.937</ele>
        <time>2020-10-13T11:18:20Z</time>
      </trkpt>
      <trkpt lat="41.560611" lon="1.242831">
        <ele>655.080</ele>
        <time>2020-10-13T11:18:23Z</time>
      </trkpt>
      <trkpt lat="41.560625" lon="1.242769">
        <ele>654.297</ele>
        <time>2020-10-13T11:18:26Z</time>
      </trkpt>
      <trkpt lat="41.560645" lon="1.242710">
        <ele>653.993</ele>
        <time>2020-10-13T11:18:29Z</time>
      </trkpt>
      <trkpt lat="41.560674" lon="1.242647">
        <ele>653.135</ele>
        <time>2020-10-13T11:18:32Z</time>
      </trkpt>
      <trkpt lat="41.560717" lon="1.242590">
        <ele>652.123</ele>
        <time>2020-10-13T11:18:35Z</time>
      </trkpt>
      <trkpt lat="41.560746" lon="1.242540">
        <ele>651.413</ele>
        <time>2020-10-13T11:18:38Z</time>
      </trkpt>
      <trkpt lat="41.560776" lon="1.242474">
        <ele>650.831</ele>
        <time>2020-10-13T11:18:41Z</time>
      </trkpt>
      <trkpt lat="41.560788" lon="1.242404">
        <ele>650.148</ele>
        <time>2020-10-13T11:18:44Z</time>
      </trkpt>
      <trkpt lat="41.560784" lon="1.242326">
        <ele>649.361</ele>
        <time>2020-10-13T11:18:48Z</time>
      </trkpt>
      <trkpt lat="41.560787" lon="1.242252">
        <ele>648.517</ele>
        <time>2020-10-13T11:18:51Z</time>
      </trkpt>
      <trkpt lat="41.560799" lon="1.242168">
        <ele>648.008</ele>
        <time>2020-10-13T11:18:54Z</time>
      </trkpt>
      <trkpt lat="41.560808" lon="1.242099">
        <ele>647.089</ele>
        <time>2020-10-13T11:18:57Z</time>
      </trkpt>
      <trkpt lat="41.560807" lon="1.242020">
        <ele>646.432</ele>
        <time>2020-10-13T11:19:00Z</time>
      </trkpt>
      <trkpt lat="41.560810" lon="1.241948">
        <ele>645.939</ele>
        <time>2020-10-13T11:19:03Z</time>
      </trkpt>
      <trkpt lat="41.560804" lon="1.241875">
        <ele>645.035</ele>
        <time>2020-10-13T11:19:06Z</time>
      </trkpt>
      <trkpt lat="41.560826" lon="1.241800">
        <ele>644.187</ele>
        <time>2020-10-13T11:19:10Z</time>
      </trkpt>
      <trkpt lat="41.560861" lon="1.241754">
        <ele>642.855</ele>
        <time>2020-10-13T11:19:13Z</time>
      </trkpt>
      <trkpt lat="41.560894" lon="1.241689">
        <ele>640.985</ele>
        <time>2020-10-13T11:19:17Z</time>
      </trkpt>
      <trkpt lat="41.560917" lon="1.241626">
        <ele>639.713</ele>
        <time>2020-10-13T11:19:21Z</time>
      </trkpt>
      <trkpt lat="41.560967" lon="1.241623">
        <ele>638.935</ele>
        <time>2020-10-13T11:19:25Z</time>
      </trkpt>
      <trkpt lat="41.561004" lon="1.241670">
        <ele>638.686</ele>
        <time>2020-10-13T11:19:28Z</time>
      </trkpt>
      <trkpt lat="41.561028" lon="1.241736">
        <ele>638.414</ele>
        <time>2020-10-13T11:19:31Z</time>
      </trkpt>
      <trkpt lat="41.561044" lon="1.241800">
        <ele>637.108</ele>
        <time>2020-10-13T11:19:34Z</time>
      </trkpt>
      <trkpt lat="41.561096" lon="1.241801">
        <ele>635.668</ele>
        <time>2020-10-13T11:19:37Z</time>
      </trkpt>
      <trkpt lat="41.561128" lon="1.241755">
        <ele>633.921</ele>
        <time>2020-10-13T11:19:40Z</time>
      </trkpt>
      <trkpt lat="41.561106" lon="1.241670">
        <ele>632.598</ele>
        <time>2020-10-13T11:19:43Z</time>
      </trkpt>
      <trkpt lat="41.561091" lon="1.241607">
        <ele>632.254</ele>
        <time>2020-10-13T11:19:45Z</time>
      </trkpt>
      <trkpt lat="41.561091" lon="1.241535">
        <ele>631.246</ele>
        <time>2020-10-13T11:19:48Z</time>
      </trkpt>
      <trkpt lat="41.561094" lon="1.241472">
        <ele>630.014</ele>
        <time>2020-10-13T11:19:51Z</time>
      </trkpt>
      <trkpt lat="41.561113" lon="1.241415">
        <ele>629.334</ele>
        <time>2020-10-13T11:19:54Z</time>
      </trkpt>
      <trkpt lat="41.561142" lon="1.241347">
        <ele>628.612</ele>
        <time>2020-10-13T11:19:57Z</time>
      </trkpt>
      <trkpt lat="41.561176" lon="1.241300">
        <ele>627.796</ele>
        <time>2020-10-13T11:20:00Z</time>
      </trkpt>
      <trkpt lat="41.561179" lon="1.241227">
        <ele>626.431</ele>
        <time>2020-10-13T11:20:04Z</time>
      </trkpt>
      <trkpt lat="41.561199" lon="1.241173">
        <ele>625.324</ele>
        <time>2020-10-13T11:20:07Z</time>
      </trkpt>
      <trkpt lat="41.561241" lon="1.241139">
        <ele>624.108</ele>
        <time>2020-10-13T11:20:10Z</time>
      </trkpt>
      <trkpt lat="41.561279" lon="1.241088">
        <ele>623.594</ele>
        <time>2020-10-13T11:20:13Z</time>
      </trkpt>
      <trkpt lat="41.561277" lon="1.241012">
        <ele>622.857</ele>
        <time>2020-10-13T11:20:16Z</time>
      </trkpt>
      <trkpt lat="41.561274" lon="1.240946">
        <ele>622.594</ele>
        <time>2020-10-13T11:20:19Z</time>
      </trkpt>
      <trkpt lat="41.561275" lon="1.240886">
        <ele>621.990</ele>
        <time>2020-10-13T11:20:22Z</time>
      </trkpt>
      <trkpt lat="41.561275" lon="1.240824">
        <ele>621.562</ele>
        <time>2020-10-13T11:20:25Z</time>
      </trkpt>
      <trkpt lat="41.561278" lon="1.240758">
        <ele>621.020</ele>
        <time>2020-10-13T11:20:41Z</time>
      </trkpt>
      <trkpt lat="41.561301" lon="1.240699">
        <ele>620.470</ele>
        <time>2020-10-13T11:20:44Z</time>
      </trkpt>
      <trkpt lat="41.561334" lon="1.240641">
        <ele>620.248</ele>
        <time>2020-10-13T11:20:47Z</time>
      </trkpt>
      <trkpt lat="41.561362" lon="1.240586">
        <ele>619.784</ele>
        <time>2020-10-13T11:20:50Z</time>
      </trkpt>
      <trkpt lat="41.561375" lon="1.240528">
        <ele>619.307</ele>
        <time>2020-10-13T11:20:53Z</time>
      </trkpt>
      <trkpt lat="41.561378" lon="1.240467">
        <ele>619.017</ele>
        <time>2020-10-13T11:20:56Z</time>
      </trkpt>
      <trkpt lat="41.561387" lon="1.240395">
        <ele>618.408</ele>
        <time>2020-10-13T11:21:01Z</time>
      </trkpt>
      <trkpt lat="41.561407" lon="1.240324">
        <ele>617.723</ele>
        <time>2020-10-13T11:21:04Z</time>
      </trkpt>
      <trkpt lat="41.561426" lon="1.240256">
        <ele>617.236</ele>
        <time>2020-10-13T11:21:07Z</time>
      </trkpt>
      <trkpt lat="41.561455" lon="1.240200">
        <ele>616.893</ele>
        <time>2020-10-13T11:21:10Z</time>
      </trkpt>
      <trkpt lat="41.561483" lon="1.240133">
        <ele>616.589</ele>
        <time>2020-10-13T11:21:13Z</time>
      </trkpt>
      <trkpt lat="41.561515" lon="1.240052">
        <ele>616.211</ele>
        <time>2020-10-13T11:21:16Z</time>
      </trkpt>
      <trkpt lat="41.561521" lon="1.239974">
        <ele>615.829</ele>
        <time>2020-10-13T11:21:20Z</time>
      </trkpt>
      <trkpt lat="41.561527" lon="1.239897">
        <ele>615.619</ele>
        <time>2020-10-13T11:21:23Z</time>
      </trkpt>
      <trkpt lat="41.561539" lon="1.239816">
        <ele>615.427</ele>
        <time>2020-10-13T11:21:26Z</time>
      </trkpt>
      <trkpt lat="41.561560" lon="1.239743">
        <ele>615.017</ele>
        <time>2020-10-13T11:21:30Z</time>
      </trkpt>
      <trkpt lat="41.561578" lon="1.239679">
        <ele>614.587</ele>
        <time>2020-10-13T11:21:33Z</time>
      </trkpt>
      <trkpt lat="41.561595" lon="1.239613">
        <ele>614.215</ele>
        <time>2020-10-13T11:21:36Z</time>
      </trkpt>
      <trkpt lat="41.561614" lon="1.239538">
        <ele>613.908</ele>
        <time>2020-10-13T11:21:40Z</time>
      </trkpt>
      <trkpt lat="41.561616" lon="1.239467">
        <ele>613.666</ele>
        <time>2020-10-13T11:21:43Z</time>
      </trkpt>
      <trkpt lat="41.561633" lon="1.239402">
        <ele>613.369</ele>
        <time>2020-10-13T11:21:46Z</time>
      </trkpt>
      <trkpt lat="41.561657" lon="1.239345">
        <ele>613.296</ele>
        <time>2020-10-13T11:21:49Z</time>
      </trkpt>
      <trkpt lat="41.561680" lon="1.239283">
        <ele>612.482</ele>
        <time>2020-10-13T11:21:52Z</time>
      </trkpt>
      <trkpt lat="41.561714" lon="1.239229">
        <ele>612.034</ele>
        <time>2020-10-13T11:21:55Z</time>
      </trkpt>
      <trkpt lat="41.561749" lon="1.239175">
        <ele>611.462</ele>
        <time>2020-10-13T11:21:58Z</time>
      </trkpt>
      <trkpt lat="41.561769" lon="1.239120">
        <ele>610.752</ele>
        <time>2020-10-13T11:22:01Z</time>
      </trkpt>
      <trkpt lat="41.561791" lon="1.239067">
        <ele>609.830</ele>
        <time>2020-10-13T11:22:04Z</time>
      </trkpt>
      <trkpt lat="41.561816" lon="1.238992">
        <ele>608.962</ele>
        <time>2020-10-13T11:22:07Z</time>
      </trkpt>
      <trkpt lat="41.561847" lon="1.238937">
        <ele>608.083</ele>
        <time>2020-10-13T11:22:10Z</time>
      </trkpt>
      <trkpt lat="41.561870" lon="1.238883">
        <ele>607.211</ele>
        <time>2020-10-13T11:22:13Z</time>
      </trkpt>
      <trkpt lat="41.561903" lon="1.238826">
        <ele>605.908</ele>
        <time>2020-10-13T11:22:17Z</time>
      </trkpt>
      <trkpt lat="41.561937" lon="1.238773">
        <ele>605.051</ele>
        <time>2020-10-13T11:22:20Z</time>
      </trkpt>
      <trkpt lat="41.561952" lon="1.238705">
        <ele>603.774</ele>
        <time>2020-10-13T11:22:25Z</time>
      </trkpt>
      <trkpt lat="41.561975" lon="1.238632">
        <ele>602.521</ele>
        <time>2020-10-13T11:22:29Z</time>
      </trkpt>
      <trkpt lat="41.561989" lon="1.238569">
        <ele>602.077</ele>
        <time>2020-10-13T11:22:32Z</time>
      </trkpt>
      <trkpt lat="41.562000" lon="1.238491">
        <ele>601.779</ele>
        <time>2020-10-13T11:22:36Z</time>
      </trkpt>
      <trkpt lat="41.562021" lon="1.238434">
        <ele>601.227</ele>
        <time>2020-10-13T11:22:39Z</time>
      </trkpt>
      <trkpt lat="41.562052" lon="1.238359">
        <ele>601.177</ele>
        <time>2020-10-13T11:22:42Z</time>
      </trkpt>
      <trkpt lat="41.562076" lon="1.238305">
        <ele>600.655</ele>
        <time>2020-10-13T11:22:45Z</time>
      </trkpt>
      <trkpt lat="41.562101" lon="1.238243">
        <ele>599.945</ele>
        <time>2020-10-13T11:22:48Z</time>
      </trkpt>
      <trkpt lat="41.562130" lon="1.238179">
        <ele>599.247</ele>
        <time>2020-10-13T11:22:51Z</time>
      </trkpt>
      <trkpt lat="41.562175" lon="1.238123">
        <ele>598.211</ele>
        <time>2020-10-13T11:22:54Z</time>
      </trkpt>
      <trkpt lat="41.562214" lon="1.238076">
        <ele>597.008</ele>
        <time>2020-10-13T11:22:57Z</time>
      </trkpt>
      <trkpt lat="41.562250" lon="1.238028">
        <ele>595.799</ele>
        <time>2020-10-13T11:23:00Z</time>
      </trkpt>
      <trkpt lat="41.562278" lon="1.237978">
        <ele>594.492</ele>
        <time>2020-10-13T11:23:03Z</time>
      </trkpt>
      <trkpt lat="41.562311" lon="1.237913">
        <ele>593.119</ele>
        <time>2020-10-13T11:23:07Z</time>
      </trkpt>
      <trkpt lat="41.562346" lon="1.237849">
        <ele>592.015</ele>
        <time>2020-10-13T11:23:11Z</time>
      </trkpt>
      <trkpt lat="41.562388" lon="1.237795">
        <ele>590.647</ele>
        <time>2020-10-13T11:23:15Z</time>
      </trkpt>
      <trkpt lat="41.562422" lon="1.237749">
        <ele>589.855</ele>
        <time>2020-10-13T11:23:18Z</time>
      </trkpt>
      <trkpt lat="41.562455" lon="1.237706">
        <ele>588.895</ele>
        <time>2020-10-13T11:23:21Z</time>
      </trkpt>
      <trkpt lat="41.562493" lon="1.237668">
        <ele>587.983</ele>
        <time>2020-10-13T11:23:24Z</time>
      </trkpt>
      <trkpt lat="41.562458" lon="1.237629">
        <ele>587.224</ele>
        <time>2020-10-13T11:23:44Z</time>
      </trkpt>
      <trkpt lat="41.562498" lon="1.237661">
        <ele>586.304</ele>
        <time>2020-10-13T11:23:57Z</time>
      </trkpt>
      <trkpt lat="41.562465" lon="1.237616">
        <ele>586.514</ele>
        <time>2020-10-13T11:24:05Z</time>
      </trkpt>
      <trkpt lat="41.562434" lon="1.237664">
        <ele>587.308</ele>
        <time>2020-10-13T11:24:09Z</time>
      </trkpt>
      <trkpt lat="41.562480" lon="1.237641">
        <ele>587.137</ele>
        <time>2020-10-13T11:24:36Z</time>
      </trkpt>
      <trkpt lat="41.562432" lon="1.237656">
        <ele>586.330</ele>
        <time>2020-10-13T11:26:37Z</time>
      </trkpt>
      <trkpt lat="41.562451" lon="1.237592">
        <ele>585.417</ele>
        <time>2020-10-13T11:26:44Z</time>
      </trkpt>
      <trkpt lat="41.562476" lon="1.237539">
        <ele>585.233</ele>
        <time>2020-10-13T11:26:47Z</time>
      </trkpt>
      <trkpt lat="41.562513" lon="1.237489">
        <ele>584.535</ele>
        <time>2020-10-13T11:26:54Z</time>
      </trkpt>
      <trkpt lat="41.562555" lon="1.237438">
        <ele>583.413</ele>
        <time>2020-10-13T11:26:58Z</time>
      </trkpt>
      <trkpt lat="41.562580" lon="1.237387">
        <ele>582.613</ele>
        <time>2020-10-13T11:27:01Z</time>
      </trkpt>
      <trkpt lat="41.562584" lon="1.237311">
        <ele>581.751</ele>
        <time>2020-10-13T11:27:04Z</time>
      </trkpt>
      <trkpt lat="41.562593" lon="1.237248">
        <ele>581.179</ele>
        <time>2020-10-13T11:27:07Z</time>
      </trkpt>
      <trkpt lat="41.562623" lon="1.237202">
        <ele>579.905</ele>
        <time>2020-10-13T11:27:11Z</time>
      </trkpt>
      <trkpt lat="41.562670" lon="1.237220">
        <ele>579.525</ele>
        <time>2020-10-13T11:27:14Z</time>
      </trkpt>
      <trkpt lat="41.562722" lon="1.237240">
        <ele>579.008</ele>
        <time>2020-10-13T11:27:18Z</time>
      </trkpt>
      <trkpt lat="41.562772" lon="1.237259">
        <ele>578.392</ele>
        <time>2020-10-13T11:27:23Z</time>
      </trkpt>
      <trkpt lat="41.562821" lon="1.237288">
        <ele>577.885</ele>
        <time>2020-10-13T11:27:27Z</time>
      </trkpt>
      <trkpt lat="41.562868" lon="1.237333">
        <ele>576.812</ele>
        <time>2020-10-13T11:27:32Z</time>
      </trkpt>
      <trkpt lat="41.562910" lon="1.237357">
        <ele>576.368</ele>
        <time>2020-10-13T11:27:36Z</time>
      </trkpt>
      <trkpt lat="41.562954" lon="1.237393">
        <ele>575.880</ele>
        <time>2020-10-13T11:27:40Z</time>
      </trkpt>
      <trkpt lat="41.563002" lon="1.237441">
        <ele>575.388</ele>
        <time>2020-10-13T11:27:44Z</time>
      </trkpt>
      <trkpt lat="41.563047" lon="1.237471">
        <ele>574.868</ele>
        <time>2020-10-13T11:27:47Z</time>
      </trkpt>
      <trkpt lat="41.563094" lon="1.237481">
        <ele>574.296</ele>
        <time>2020-10-13T11:27:49Z</time>
      </trkpt>
      <trkpt lat="41.563144" lon="1.237494">
        <ele>573.971</ele>
        <time>2020-10-13T11:27:51Z</time>
      </trkpt>
      <trkpt lat="41.563199" lon="1.237515">
        <ele>573.541</ele>
        <time>2020-10-13T11:27:53Z</time>
      </trkpt>
      <trkpt lat="41.563250" lon="1.237527">
        <ele>573.415</ele>
        <time>2020-10-13T11:27:55Z</time>
      </trkpt>
      <trkpt lat="41.563295" lon="1.237542">
        <ele>573.108</ele>
        <time>2020-10-13T11:27:57Z</time>
      </trkpt>
      <trkpt lat="41.563350" lon="1.237571">
        <ele>572.772</ele>
        <time>2020-10-13T11:28:00Z</time>
      </trkpt>
      <trkpt lat="41.563392" lon="1.237600">
        <ele>572.145</ele>
        <time>2020-10-13T11:28:03Z</time>
      </trkpt>
      <trkpt lat="41.563434" lon="1.237638">
        <ele>571.782</ele>
        <time>2020-10-13T11:28:06Z</time>
      </trkpt>
      <trkpt lat="41.563485" lon="1.237676">
        <ele>571.328</ele>
        <time>2020-10-13T11:28:09Z</time>
      </trkpt>
      <trkpt lat="41.563536" lon="1.237702">
        <ele>570.520</ele>
        <time>2020-10-13T11:28:12Z</time>
      </trkpt>
      <trkpt lat="41.563583" lon="1.237738">
        <ele>570.288</ele>
        <time>2020-10-13T11:28:15Z</time>
      </trkpt>
      <trkpt lat="41.563636" lon="1.237760">
        <ele>570.168</ele>
        <time>2020-10-13T11:28:18Z</time>
      </trkpt>
      <trkpt lat="41.563685" lon="1.237775">
        <ele>569.896</ele>
        <time>2020-10-13T11:28:21Z</time>
      </trkpt>
      <trkpt lat="41.563737" lon="1.237787">
        <ele>569.842</ele>
        <time>2020-10-13T11:28:25Z</time>
      </trkpt>
      <trkpt lat="41.563783" lon="1.237803">
        <ele>570.122</ele>
        <time>2020-10-13T11:28:28Z</time>
      </trkpt>
      <trkpt lat="41.563831" lon="1.237821">
        <ele>570.014</ele>
        <time>2020-10-13T11:28:31Z</time>
      </trkpt>
      <trkpt lat="41.563882" lon="1.237840">
        <ele>570.408</ele>
        <time>2020-10-13T11:28:35Z</time>
      </trkpt>
      <trkpt lat="41.563924" lon="1.237866">
        <ele>570.629</ele>
        <time>2020-10-13T11:28:38Z</time>
      </trkpt>
    </trkseg>
  </trk>
</gpx>
